New Berlinville, Pennsylvania
Current Conditions -  °F | °C
As of 7:54 AM on Friday 19 Dec 2014 (Local Time) from KPTW Reporting Station
Overcast Overcast  
Wind Chill: 28°   Ceiling: 3300
Heat Index: 34°   Visibility: 10mi
Dew Point: 25°   Wind: 7mph
Humidity: 70%   Direction: 290°WNW
Pressure: 30.07"   Gusts: NA
Location:  40.35°N, 75.63°W
Report Text: KPTW 191254Z AUTO 29006KT 10SM OVC033 01/M04 A3007 RMK AO2 SLP182 T00111039
Loading
Personal Weather Stations






























Interactive Weather Map New forecast layout! Learn more

10-Day Weather Forecast

Advertisements
Track Severe Weather on mobile